CTH weather

Chester County G O Carlson Airport
Coatesville, Pennsylvania, United States

Public forecast

Using degrees Fahrenheit for public forecast. Weather courtesy of forecast.io.

Current aviation weather report (METAR) for Chester County G O Carlson Airport

Retrieved 2020/08/06 09:35 UTC (13 minutes ago):

KMQS 060935Z AUTO 00000KT 10SM CLR 20/19 A3010 RMK AO2

Closest aviation forecast (TAF) to Chester County G O Carlson Airport

Closest forecast is Lancaster Airport, 21.6 nm (39.9 km) WNW. Retrieved 2020/08/06 06:33 UTC (3 hours ago):

TAF KLNS 060530Z 0606/0706 05003KT P6SM SKC FM060800 VRB03KT P6SM OVC070 FM061100 05004KT P6SM BKN035 OVC070 PROB30 0615/0618 4SM -RA OVC020 FM061800 10006KT P6SM BKN035 PROB30 0618/0624 4SM -SHRA OVC050 FM070400 13003KT P6SM OVC025